Flugplatz Gießen-Lützellinden

Für EDFL sind keine METAR/TAF Berichte vorhanden.
Es werden die Flugwettermeldungen vom Flugplatz Siegerland in 40 km Entfernung angezeigt.

Prognose für EDGS

vom 25.01. um 00:00 UTC

Am 25.01. zwischen 00:00 UTC und 00:00 UTC

variable Windrichtung mit 3 kt

Sichtweite 200 m

Nebel

bedeckt


Am 25.01. zwischen 00:00 UTC und 00:00 UTC zeitweise

Sichtweite 900 m

Code: FZFG

bedeckt in 400 ft

TAF EDGS 251400Z 2515/2524 VRB03KT 0200 FG OVC000 TEMPO 2515/2521 0900 FZFG OVC004
Impressum